Time;durP1;ratioP1;P1;durP2;ratioP2;P2;SDS_P1;SDS_P2;PMS_P1;PMS_P2;Temp;Humidity;BMP_temperature;BMP_pressure;BME280_temperature;BME280_humidity;BME280_pressure;Samples;Min_cycle;Max_cycle;Signal;HPM_P1;HPM_P2
2022/03/11 00:02:05;;;;;;;3.78;1.52;;;;;;;13.83;100.00;99089.28;7402083;19;20467;-46
2022/03/11 00:04:31;;;;;;;4.35;1.63;;;;;;;13.83;100.00;99092.88;7398162;19;20020;-46
2022/03/11 00:06:57;;;;;;;5.00;1.80;;;;;;;13.84;100.00;99093.63;7398276;19;20470;-46
2022/03/11 00:09:23;;;;;;;2.28;1.35;;;;;;;13.86;100.00;99080.63;7398530;19;20363;-46
2022/03/11 00:11:48;;;;;;;4.15;1.92;;;;;;;13.88;100.00;99077.31;7402059;19;20015;-46
2022/03/11 00:17:44;;;;;;;1.90;1.75;;;;;;;13.84;100.00;99074.78;7394646;19;20032;-83
2022/03/11 00:20:10;;;;;;;2.92;1.85;;;;;;;13.82;100.00;99076.59;7391508;19;20015;-83
2022/03/11 00:22:36;;;;;;;5.80;1.63;;;;;;;13.87;100.00;99070.97;7391079;19;20010;-83
2022/03/11 00:25:04;;;;;;;2.95;2.08;;;;;;;13.87;100.00;99070.19;7388066;19;20039;-83
2022/03/11 00:27:33;;;;;;;6.55;2.75;;;;;;;13.82;100.00;99068.19;7387792;19;20019;-83
2022/03/11 00:29:58;;;;;;;11.80;2.60;;;;;;;13.85;100.00;99058.75;7391522;19;20086;-83
2022/03/11 00:32:24;;;;;;;2.65;1.75;;;;;;;13.78;100.00;99057.25;7391399;19;20025;-83
2022/03/11 00:34:49;;;;;;;4.68;1.63;;;;;;;13.77;100.00;99055.00;7393204;19;20462;-83
2022/03/11 00:37:15;;;;;;;6.22;2.20;;;;;;;13.74;100.00;99056.00;7392780;19;20015;-83
2022/03/11 00:39:41;;;;;;;7.63;2.80;;;;;;;13.71;100.00;99043.81;7396553;19;20010;-84
2022/03/11 00:42:06;;;;;;;3.40;1.70;;;;;;;13.65;100.00;99049.44;7398464;19;20035;-84
2022/03/11 00:44:32;;;;;;;3.00;1.77;;;;;;;13.74;100.00;99036.41;7397921;19;20022;-84
2022/03/11 00:46:57;;;;;;;3.13;1.50;;;;;;;13.73;100.00;99029.31;7392930;19;20046;-84
2022/03/11 00:49:23;;;;;;;11.10;2.72;;;;;;;13.71;100.00;99032.63;7394773;19;20337;-83
2022/03/11 00:51:48;;;;;;;8.63;3.42;;;;;;;13.73;100.00;99029.31;7396822;19;20011;-84
2022/03/11 00:54:14;;;;;;;8.63;3.72;;;;;;;13.70;100.00;99022.72;7390992;19;20021;-84
2022/03/11 00:56:39;;;;;;;9.70;1.83;;;;;;;13.70;100.00;99019.91;7391664;19;20656;-83
2022/03/11 00:59:06;;;;;;;9.95;1.98;;;;;;;13.72;100.00;99011.00;7397562;19;20006;-84
2022/03/11 01:01:31;;;;;;;4.82;2.30;;;;;;;13.66;100.00;99000.59;7398034;19;20018;-83
2022/03/11 01:03:57;;;;;;;4.15;2.17;;;;;;;13.61;100.00;99006.22;7393917;19;20011;-84
2022/03/11 01:06:22;;;;;;;7.28;3.38;;;;;;;13.60;100.00;99005.47;7390263;19;20393;-83
2022/03/11 01:08:48;;;;;;;5.05;2.10;;;;;;;13.60;100.00;99008.25;7392517;19;20038;-83
2022/03/11 01:11:14;;;;;;;7.22;3.10;;;;;;;13.58;100.00;99002.41;7395125;19;20015;-83
2022/03/11 01:13:39;;;;;;;12.38;3.13;;;;;;;13.59;100.00;99005.97;7392478;19;20066;-83
2022/03/11 01:16:05;;;;;;;3.05;1.55;;;;;;;13.60;100.00;98996.28;7391774;19;20011;-83
2022/03/11 01:18:32;;;;;;;11.63;2.25;;;;;;;13.58;100.00;98996.81;7393681;19;20035;-83
2022/03/11 01:20:58;;;;;;;3.65;2.15;;;;;;;13.62;100.00;98986.13;7389731;19;20098;-84
2022/03/11 01:23:23;;;;;;;3.38;1.45;;;;;;;13.61;100.00;98981.81;7391374;19;20019;-84
2022/03/11 01:25:49;;;;;;;7.20;2.88;;;;;;;13.58;100.00;98977.25;7392406;19;20025;-84
2022/03/11 01:28:15;;;;;;;5.03;2.03;;;;;;;13.56;100.00;98979.03;7392474;19;20018;-84
2022/03/11 01:30:41;;;;;;;6.18;2.83;;;;;;;13.56;100.00;98965.81;7392922;19;20381;-84
2022/03/11 01:33:07;;;;;;;4.40;2.08;;;;;;;13.52;100.00;98973.72;7390878;19;20026;-84
2022/03/11 01:35:37;;;;;;;6.00;1.55;;;;;;;13.58;100.00;98968.06;7395583;19;20022;-88
2022/03/11 01:38:02;;;;;;;2.13;1.35;;;;;;;13.62;100.00;98969.31;7394502;19;20050;-85
2022/03/11 01:40:28;;;;;;;4.07;3.60;;;;;;;13.57;100.00;98958.19;7393107;19;20508;-83
2022/03/11 01:42:53;;;;;;;5.38;2.55;;;;;;;13.51;100.00;98966.59;7393743;19;20023;-84
2022/03/11 01:45:19;;;;;;;2.83;1.85;;;;;;;13.49;100.00;98952.38;7391154;19;20037;-88
2022/03/11 01:47:45;;;;;;;6.53;1.67;;;;;;;13.53;100.00;98944.47;7392122;19;20048;-84
2022/03/11 01:50:10;;;;;;;7.03;2.28;;;;;;;13.52;100.00;98951.34;7391595;19;20025;-84
2022/03/11 01:52:37;;;;;;;4.78;2.00;;;;;;;13.51;100.00;98949.81;7389639;19;20098;-84
2022/03/11 01:55:04;;;;;;;4.00;2.00;;;;;;;13.46;100.00;98947.81;7389994;19;20488;-83
2022/03/11 01:57:34;;;;;;;4.15;2.05;;;;;;;13.49;100.00;98952.38;7392991;19;20022;-84
2022/03/11 01:59:59;;;;;;;4.13;1.95;;;;;;;13.50;100.00;98942.72;7392414;19;20010;-83
2022/03/11 02:02:27;;;;;;;6.63;1.50;;;;;;;13.51;100.00;98940.69;7391571;19;20216;-83
2022/03/11 02:04:53;;;;;;;2.05;1.52;;;;;;;13.52;100.00;98939.38;7391066;19;20018;-83
2022/03/11 02:07:21;;;;;;;6.07;2.05;;;;;;;13.51;100.00;98933.03;7391366;19;20038;-83
2022/03/11 02:09:47;;;;;;;3.83;1.25;;;;;;;13.49;100.00;98918.78;7389546;19;20385;-83
2022/03/11 02:12:27;;;;;;;5.00;2.05;;;;;;;13.47;100.00;98915.03;7390173;19;20039;-83
2022/03/11 02:14:53;;;;;;;3.47;2.30;;;;;;;13.43;100.00;98915.28;7389890;19;20025;-84
2022/03/11 02:17:18;;;;;;;3.13;1.13;;;;;;;13.42;100.00;98910.22;7391736;19;20423;-83
2022/03/11 02:19:44;;;;;;;2.35;1.23;;;;;;;13.45;100.00;98904.34;7390410;19;20015;-83
2022/03/11 02:22:12;;;;;;;3.22;2.00;;;;;;;13.42;100.00;98908.19;7390166;19;20087;-82
2022/03/11 02:24:37;;;;;;;5.05;1.48;;;;;;;13.41;100.00;98892.66;7390220;19;20039;-83
2022/03/11 02:27:03;;;;;;;2.30;1.60;;;;;;;13.43;100.00;98887.31;7390290;19;20460;-83
2022/03/11 02:29:29;;;;;;;3.65;1.83;;;;;;;13.42;100.00;98891.41;7390317;19;20015;-83
2022/03/11 02:31:55;;;;;;;4.63;1.13;;;;;;;13.38;100.00;98874.13;7395435;19;20049;-84
2022/03/11 02:34:20;;;;;;;16.20;3.00;;;;;;;13.39;100.00;98875.66;7398320;19;20022;-84
2022/03/11 02:36:46;;;;;;;6.22;1.50;;;;;;;13.35;100.00;98863.97;7392878;19;20029;-83
2022/03/11 02:39:12;;;;;;;6.60;0.90;;;;;;;13.36;100.00;98854.31;7392638;19;20019;-84
2022/03/11 02:41:41;;;;;;;4.13;2.15;;;;;;;13.37;100.00;98850.25;7393401;19;20014;-84
2022/03/11 02:44:06;;;;;;;4.00;1.95;;;;;;;13.29;100.00;98843.69;7391659;19;20014;-84
2022/03/11 02:46:32;;;;;;;6.65;3.33;;;;;;;13.29;100.00;98848.53;7387986;19;20018;-84
2022/03/11 02:48:58;;;;;;;12.25;2.65;;;;;;;13.36;100.00;98843.13;7389785;19;20015;-83
2022/03/11 02:51:23;;;;;;;4.03;2.35;;;;;;;13.38;100.00;98832.16;7393102;19;20130;-84
2022/03/11 02:53:49;;;;;;;2.05;1.25;;;;;;;13.40;100.00;98832.44;7390346;19;20353;-84
2022/03/11 02:56:15;;;;;;;3.05;2.10;;;;;;;13.41;100.00;98822.75;7387926;19;20078;-84
2022/03/11 02:58:41;;;;;;;14.23;2.22;;;;;;;13.42;100.00;98813.09;7393032;19;20018;-84
2022/03/11 03:01:07;;;;;;;5.20;1.50;;;;;;;13.31;100.00;98813.19;7394388;19;20014;-84
2022/03/11 03:03:33;;;;;;;4.97;1.73;;;;;;;13.27;100.00;98815.50;7396892;19;20357;-84
2022/03/11 03:05:59;;;;;;;1.90;1.33;;;;;;;13.23;100.00;98803.81;7394967;19;20019;-84
2022/03/11 03:08:24;;;;;;;4.40;1.92;;;;;;;13.19;100.00;98806.13;7396606;19;20081;-84
2022/03/11 03:10:50;;;;;;;6.78;2.70;;;;;;;13.19;100.00;98797.75;7398336;19;20073;-84
2022/03/11 03:13:16;;;;;;;5.57;2.30;;;;;;;13.13;100.00;98797.03;7396240;19;20473;-83
2022/03/11 03:15:41;;;;;;;2.90;1.55;;;;;;;13.21;100.00;98797.97;7396028;19;20030;-84
2022/03/11 03:18:07;;;;;;;3.63;1.48;;;;;;;13.23;100.00;98792.63;7395372;19;20088;-84
2022/03/11 03:20:32;;;;;;;15.57;1.83;;;;;;;13.26;100.00;98785.25;7397363;19;20484;-84
2022/03/11 03:22:58;;;;;;;8.38;1.73;;;;;;;13.28;100.00;98786.25;7395522;19;20039;-83
2022/03/11 03:25:24;;;;;;;3.05;1.42;;;;;;;13.29;100.00;98787.78;7394868;19;20015;-83
2022/03/11 03:27:50;;;;;;;2.65;1.15;;;;;;;13.31;100.00;98779.63;7395911;19;20035;-84
2022/03/11 03:30:16;;;;;;;2.05;0.98;;;;;;;13.35;100.00;98780.09;7398214;19;20456;-84
2022/03/11 03:32:42;;;;;;;5.05;2.35;;;;;;;13.39;100.00;98786.16;7396850;19;20029;-84
2022/03/11 03:35:10;;;;;;;6.18;3.08;;;;;;;13.45;100.00;98784.06;7395884;19;20078;-84
2022/03/11 03:37:35;;;;;;;3.47;1.40;;;;;;;13.43;100.00;98769.84;7396575;19;20018;-83
2022/03/11 03:40:01;;;;;;;7.10;2.22;;;;;;;13.44;100.00;98765.78;7396099;19;20085;-84
2022/03/11 03:42:27;;;;;;;5.00;2.05;;;;;;;13.48;100.00;98771.09;7395016;19;20010;-84
2022/03/11 03:44:53;;;;;;;7.78;1.60;;;;;;;13.48;100.00;98766.25;7396802;19;20018;-84
2022/03/11 03:47:22;;;;;;;1.17;1.08;;;;;;;13.49;100.00;98761.44;7396487;19;20373;-84
2022/03/11 03:49:48;;;;;;;2.20;2.00;;;;;;;13.48;100.00;98755.06;7396894;19;20096;-84
2022/03/11 03:52:13;;;;;;;5.15;2.72;;;;;;;13.51;100.00;98747.69;7393776;19;20476;-84
2022/03/11 03:54:39;;;;;;;4.30;1.58;;;;;;;13.52;100.00;98741.56;7397445;19;20049;-84
2022/03/11 03:57:05;;;;;;;1.85;1.42;;;;;;;13.56;100.00;98744.06;7396141;19;20014;-84
2022/03/11 03:59:31;;;;;;;4.28;1.85;;;;;;;13.51;100.00;98736.50;7394135;19;20412;-84
2022/03/11 04:01:57;;;;;;;5.00;2.40;;;;;;;13.53;100.00;98734.69;7400017;19;20508;-84
2022/03/11 04:04:22;;;;;;;5.10;3.38;;;;;;;13.54;100.00;98736.19;7395602;19;20019;-84
2022/03/11 04:06:48;;;;;;;8.68;2.58;;;;;;;13.54;100.00;98716.59;7392893;19;20017;-83
2022/03/11 04:09:13;;;;;;;5.05;1.98;;;;;;;13.55;100.00;98726.53;7394515;19;20019;-84
2022/03/11 04:11:40;;;;;;;3.33;2.13;;;;;;;13.53;100.00;98717.91;7399036;19;20033;-84
2022/03/11 04:14:06;;;;;;;8.18;3.10;;;;;;;13.50;100.00;98716.16;7389762;19;20026;-84
2022/03/11 04:16:32;;;;;;;7.20;1.90;;;;;;;13.54;100.00;98710.25;7391428;19;20019;-83
2022/03/11 04:18:59;;;;;;;8.68;3.60;;;;;;;13.52;100.00;98710.78;7396050;19;20007;-84
2022/03/11 04:21:25;;;;;;;5.85;2.85;;;;;;;13.50;100.00;98704.19;7396880;19;20476;-83
2022/03/11 04:23:51;;;;;;;8.88;2.53;;;;;;;13.45;100.00;98693.81;7393920;19;20014;-84
2022/03/11 04:26:17;;;;;;;6.50;2.55;;;;;;;13.42;100.00;98690.03;7392365;19;20038;-84
2022/03/11 04:28:43;;;;;;;4.22;1.70;;;;;;;13.40;100.00;98689.03;7394803;19;20134;-84
2022/03/11 04:31:11;;;;;;;6.95;3.33;;;;;;;13.32;100.00;98679.72;7397455;19;20699;-84
2022/03/11 04:33:38;;;;;;;9.18;3.33;;;;;;;13.32;100.00;98677.66;7391555;19;20025;-84
2022/03/11 04:36:05;;;;;;;6.55;3.03;;;;;;;13.23;100.00;98678.00;7393836;19;20098;-83
2022/03/11 04:38:31;;;;;;;8.32;2.85;;;;;;;13.25;100.00;98667.06;7394381;19;20023;-83
2022/03/11 04:40:57;;;;;;;6.00;2.95;;;;;;;13.23;100.00;98666.81;7395489;19;20506;-83
2022/03/11 04:43:23;;;;;;;6.68;2.78;;;;;;;13.13;100.00;98657.25;7393820;19;20011;-83
2022/03/11 04:45:49;;;;;;;8.10;3.55;;;;;;;13.09;100.00;98662.38;7392081;19;20018;-83
2022/03/11 04:48:15;;;;;;;6.90;2.92;;;;;;;13.02;100.00;98646.16;7394692;19;20022;-83
2022/03/11 04:50:40;;;;;;;6.63;3.00;;;;;;;13.00;100.00;98654.28;7394834;19;20046;-84
2022/03/11 04:53:06;;;;;;;6.68;3.47;;;;;;;12.97;100.00;98655.34;7391640;19;20059;-84
2022/03/11 04:55:32;;;;;;;12.05;3.30;;;;;;;12.97;100.00;98638.59;7392534;19;20086;-84
2022/03/11 04:57:58;;;;;;;8.65;3.15;;;;;;;13.04;100.00;98648.44;7394925;19;20022;-84
2022/03/11 05:00:23;;;;;;;9.38;2.78;;;;;;;13.05;100.00;98647.94;7394348;19;20098;-84
2022/03/11 05:02:49;;;;;;;15.93;3.45;;;;;;;13.03;100.00;98650.47;7393249;19;20019;-85
2022/03/11 05:05:15;;;;;;;6.43;2.25;;;;;;;13.04;100.00;98654.75;7392758;19;20019;-84
2022/03/11 05:07:42;;;;;;;2.83;2.10;;;;;;;13.02;100.00;98643.34;7395345;19;20014;-84
2022/03/11 05:10:09;;;;;;;8.52;2.30;;;;;;;13.00;100.00;98640.31;7394493;19;20033;-85
2022/03/11 05:12:35;;;;;;;5.22;2.22;;;;;;;12.39;100.00;98642.84;7393257;19;20011;-85
2022/03/11 05:15:02;;;;;;;3.80;2.05;;;;;;;12.45;100.00;98637.97;7393373;19;20039;-85
2022/03/11 05:17:28;;;;;;;6.72;3.20;;;;;;;12.46;100.00;98633.88;7393058;19;20074;-87
2022/03/11 05:19:54;;;;;;;3.15;1.80;;;;;;;12.47;100.00;98644.56;7394091;19;20375;-87
2022/03/11 05:22:20;;;;;;;6.95;3.00;;;;;;;12.60;100.00;98638.38;7393573;19;20026;-87
2022/03/11 05:24:46;;;;;;;6.85;3.08;;;;;;;12.53;100.00;98633.34;7391817;19;20006;-87
2022/03/11 05:27:12;;;;;;;8.10;4.13;;;;;;;12.45;100.00;98640.75;7398069;19;20025;-87
2022/03/11 05:29:39;;;;;;;11.88;4.60;;;;;;;12.42;100.00;98628.59;7392263;19;20015;-87
2022/03/11 05:32:06;;;;;;;11.13;3.42;;;;;;;12.32;100.00;98640.59;7396807;19;20018;-88
2022/03/11 05:34:32;;;;;;;6.68;2.80;;;;;;;12.33;100.00;98628.13;7392266;19;20082;-87
2022/03/11 05:36:58;;;;;;;5.97;2.22;;;;;;;12.29;100.00;98624.84;7394392;19;20017;-91
2022/03/11 05:39:23;;;;;;;11.25;2.85;;;;;;;12.29;100.00;98624.84;7400471;19;20022;-90
2022/03/11 05:41:49;;;;;;;3.97;2.50;;;;;;;12.43;100.00;98618.19;7397724;19;20011;-86
2022/03/11 05:44:18;;;;;;;2.72;2.35;;;;;;;12.45;100.00;98621.94;7392942;19;20018;-90
2022/03/11 05:46:47;;;;;;;7.93;2.22;;;;;;;12.43;100.00;98613.34;7391150;19;20023;-86
2022/03/11 05:49:13;;;;;;;4.10;2.45;;;;;;;12.34;100.00;98604.53;7395043;19;20015;-84
2022/03/11 05:51:38;;;;;;;7.88;2.75;;;;;;;12.31;100.00;98605.56;7394167;19;20025;-86
2022/03/11 05:54:05;;;;;;;3.60;1.80;;;;;;;12.33;100.00;98598.19;7389027;19;20011;-85
2022/03/11 05:56:31;;;;;;;4.95;2.50;;;;;;;12.28;100.00;98595.44;7391247;19;20019;-90
2022/03/11 05:58:57;;;;;;;6.43;2.10;;;;;;;12.15;100.00;98593.97;7396080;19;20026;-89
2022/03/11 06:01:25;;;;;;;4.95;1.83;;;;;;;12.18;100.00;98595.00;7395515;19;20485;-87
2022/03/11 06:03:51;;;;;;;2.53;2.33;;;;;;;12.12;100.00;98586.66;7392344;19;20015;-86
2022/03/11 06:06:16;;;;;;;11.05;2.33;;;;;;;12.11;100.00;98582.34;7389227;19;20074;-87
2022/03/11 06:08:42;;;;;;;4.47;1.58;;;;;;;12.05;100.00;98584.41;7390265;19;20066;-86
2022/03/11 06:11:11;;;;;;;8.00;2.35;;;;;;;12.03;100.00;98575.81;7393042;19;20018;-86
2022/03/11 06:13:37;;;;;;;5.63;2.33;;;;;;;11.97;100.00;98577.88;7389582;19;20046;-88
2022/03/11 06:16:03;;;;;;;3.95;2.15;;;;;;;11.91;100.00;98568.75;7391041;19;20468;-86
2022/03/11 06:18:29;;;;;;;7.75;3.80;;;;;;;11.80;100.00;98579.97;7392666;19;20022;-85
2022/03/11 06:20:56;;;;;;;5.85;2.20;;;;;;;11.71;100.00;98571.16;7393816;19;20334;-85
2022/03/11 06:23:23;;;;;;;4.72;2.53;;;;;;;11.70;100.00;98564.81;7392948;19;20018;-86
2022/03/11 06:25:49;;;;;;;6.00;2.60;;;;;;;11.68;100.00;98561.78;7389990;19;20035;-86
2022/03/11 06:28:15;;;;;;;4.50;2.45;;;;;;;11.71;100.00;98562.78;7390335;19;20026;-85
2022/03/11 06:30:41;;;;;;;7.63;1.90;;;;;;;11.73;100.00;98569.38;7392431;19;20527;-86
2022/03/11 06:33:06;;;;;;;3.65;2.08;;;;;;;11.71;100.00;98560.75;7390406;19;20014;-87
2022/03/11 06:35:33;;;;;;;3.75;2.17;;;;;;;11.64;100.00;98550.13;7392100;19;20501;-86
2022/03/11 06:37:59;;;;;;;6.00;2.00;;;;;;;11.65;100.00;98557.19;7398542;19;20025;-87
2022/03/11 06:40:24;;;;;;;5.20;2.25;;;;;;;11.59;100.00;98552.91;7400044;19;20018;-87
2022/03/11 06:42:51;;;;;;;3.25;1.95;;;;;;;11.59;100.00;98541.75;7398105;19;20025;-87
2022/03/11 06:45:18;;;;;;;5.80;3.22;;;;;;;11.69;100.00;98545.81;7399368;19;20018;-87
2022/03/11 06:47:46;;;;;;;3.13;2.25;;;;;;;11.73;100.00;98537.94;7399322;19;20014;-86
2022/03/11 06:50:12;;;;;;;9.48;3.72;;;;;;;11.71;100.00;98549.63;7400198;19;20019;-87
2022/03/11 06:52:38;;;;;;;6.88;4.07;;;;;;;11.70;100.00;98542.50;7397128;19;20037;-88
2022/03/11 06:55:04;;;;;;;6.65;2.72;;;;;;;11.71;100.00;98532.88;7397706;19;20022;-88
2022/03/11 06:57:31;;;;;;;3.15;1.55;;;;;;;11.75;100.00;98533.34;7398883;19;20022;-88
2022/03/11 06:59:57;;;;;;;8.05;2.47;;;;;;;11.75;100.00;98533.34;7397889;19;20495;-88
2022/03/11 07:02:22;;;;;;;4.15;1.48;;;;;;;11.79;100.00;98533.84;7399674;19;20062;-88
2022/03/11 07:04:48;;;;;;;4.80;3.08;;;;;;;11.82;100.00;98538.41;7396511;19;20041;-89
2022/03/11 07:07:14;;;;;;;4.95;2.15;;;;;;;11.90;100.00;98528.19;7397717;19;20006;-88
2022/03/11 07:09:39;;;;;;;8.02;2.17;;;;;;;11.98;100.00;98533.97;7398809;19;20013;-88
2022/03/11 07:12:05;;;;;;;3.45;1.75;;;;;;;12.00;100.00;98523.03;7401568;19;20011;-88
2022/03/11 07:14:33;;;;;;;3.72;2.20;;;;;;;12.02;100.00;98524.03;7403766;19;20010;-88
2022/03/11 07:16:59;;;;;;;9.43;2.65;;;;;;;11.99;100.00;98524.34;7397284;19;20007;-89
2022/03/11 07:19:29;;;;;;;1.85;1.52;;;;;;;12.00;100.00;98525.84;7398297;19;20015;-88
2022/03/11 07:21:58;;;;;;;3.58;1.55;;;;;;;12.01;100.00;98527.38;7396336;19;20015;-88
2022/03/11 07:24:24;;;;;;;3.03;1.80;;;;;;;12.00;100.00;98521.03;7397106;19;20014;-88
2022/03/11 07:26:49;;;;;;;3.17;2.28;;;;;;;12.07;100.00;98516.91;7395004;19;20409;-88
2022/03/11 07:29:15;;;;;;;7.50;2.83;;;;;;;12.10;100.00;98508.28;7397593;19;20014;-88
2022/03/11 07:31:41;;;;;;;3.58;2.05;;;;;;;12.13;100.00;98501.66;7403611;19;20062;-88
2022/03/11 07:34:08;;;;;;;2.83;1.48;;;;;;;12.16;100.00;98497.81;7396996;19;20033;-89
2022/03/11 07:36:34;;;;;;;6.63;1.52;;;;;;;12.16;100.00;98503.41;7395590;19;20743;-88
2022/03/11 07:39:07;;;;;;;4.40;1.88;;;;;;;12.25;100.00;98484.81;7398787;19;20029;-87
2022/03/11 07:41:35;;;;;;;4.93;1.85;;;;;;;12.30;100.00;98484.03;7403977;19;20037;-88
2022/03/11 07:44:01;;;;;;;5.93;1.80;;;;;;;12.36;100.00;98479.16;7399447;19;20014;-87
2022/03/11 07:46:29;;;;;;;2.08;1.58;;;;;;;12.44;100.00;98482.88;7395486;19;20014;-86
2022/03/11 07:48:55;;;;;;;4.65;1.75;;;;;;;12.49;100.00;98473.69;7399689;19;20039;-85
2022/03/11 07:51:21;;;;;;;4.07;1.88;;;;;;;12.54;100.00;98465.25;7400962;19;20022;-85
2022/03/11 07:53:47;;;;;;;1.90;1.65;;;;;;;12.60;100.00;98470.78;7396163;19;20014;-85
2022/03/11 07:56:14;;;;;;;15.07;3.03;;;;;;;12.65;100.00;98472.75;7397390;19;20509;-85
2022/03/11 07:58:41;;;;;;;2.38;1.15;;;;;;;12.69;100.00;98476.78;7399940;19;20030;-85
2022/03/11 08:01:09;;;;;;;2.72;1.27;;;;;;;12.71;100.00;98476.28;7400823;19;20114;-86
2022/03/11 08:03:37;;;;;;;6.57;3.25;;;;;;;12.66;100.00;98466.66;7398676;19;20013;-87
2022/03/11 08:06:04;;;;;;;2.88;1.58;;;;;;;12.72;100.00;98456.19;7396506;19;20023;-86
2022/03/11 08:08:30;;;;;;;4.70;1.95;;;;;;;12.73;100.00;98457.69;7398662;19;20047;-87
2022/03/11 08:10:55;;;;;;;2.35;1.75;;;;;;;12.76;100.00;98453.84;7399788;19;20022;-86
2022/03/11 08:13:22;;;;;;;1.73;1.40;;;;;;;12.75;100.00;98455.16;7396978;19;20010;-86
2022/03/11 08:15:48;;;;;;;3.03;2.60;;;;;;;12.76;100.00;98442.69;7396305;19;20035;-86
2022/03/11 08:18:14;;;;;;;3.25;1.58;;;;;;;12.77;100.00;98441.41;7399290;19;20850;-87
2022/03/11 08:20:40;;;;;;;5.10;1.25;;;;;;;12.76;100.00;98434.31;7399456;19;20014;-85
2022/03/11 08:23:06;;;;;;;3.53;1.80;;;;;;;12.73;100.00;98423.44;7397314;19;20037;-86
2022/03/11 08:25:32;;;;;;;3.92;2.05;;;;;;;12.73;100.00;98434.59;7396069;19;20465;-86
2022/03/11 08:27:58;;;;;;;5.93;2.00;;;;;;;12.70;100.00;98430.06;7396830;19;20006;-86
2022/03/11 08:30:26;;;;;;;1.75;1.35;;;;;;;12.80;100.00;98425.63;7397810;19;20103;-84
2022/03/11 08:32:53;;;;;;;4.32;1.58;;;;;;;12.82;100.00;98431.47;7395364;19;20486;-87
2022/03/11 08:35:19;;;;;;;4.53;1.65;;;;;;;12.86;100.00;98420.75;7394502;19;20042;-85
2022/03/11 08:37:46;;;;;;;4.55;1.27;;;;;;;12.86;100.00;98431.91;7393920;19;20035;-83
2022/03/11 08:40:12;;;;;;;6.05;1.65;;;;;;;12.82;100.00;98426.59;7395592;19;20018;-84
2022/03/11 08:42:39;;;;;;;6.38;2.03;;;;;;;12.91;100.00;98422.69;7394181;19;20018;-84
2022/03/11 08:45:06;;;;;;;5.25;0.90;;;;;;;12.90;100.00;98427.56;7394600;19;20460;-85
2022/03/11 08:47:32;;;;;;;2.45;0.55;;;;;;;12.92;100.00;98418.63;7394503;19;20007;-84
2022/03/11 08:49:57;;;;;;;5.50;1.42;;;;;;;12.87;100.00;98416.66;7396344;19;20095;-85
2022/03/11 08:52:26;;;;;;;3.22;1.75;;;;;;;12.79;100.00;98405.31;7393446;19;20015;-84
2022/03/11 08:54:52;;;;;;;3.95;1.60;;;;;;;12.91;100.00;98406.69;7393778;19;20031;-86
2022/03/11 08:57:18;;;;;;;2.63;1.52;;;;;;;13.07;100.00;98396.63;7393961;19;20021;-85
2022/03/11 08:59:45;;;;;;;4.38;1.58;;;;;;;13.16;100.00;98387.88;7392784;19;20422;-85
2022/03/11 09:02:10;;;;;;;1.52;1.38;;;;;;;13.26;100.00;98391.78;7396774;19;20179;-85
2022/03/11 09:04:36;;;;;;;1.17;0.82;;;;;;;13.23;100.00;98386.50;7394247;19;20024;-85
2022/03/11 09:07:03;;;;;;;6.05;1.60;;;;;;;13.21;100.00;98389.81;7397275;19;20018;-86
2022/03/11 09:09:29;;;;;;;3.55;0.82;;;;;;;13.25;100.00;98395.88;7394870;19;20019;-85
2022/03/11 09:11:55;;;;;;;1.95;1.35;;;;;;;13.29;100.00;98398.38;7398581;19;20041;-84
2022/03/11 09:14:21;;;;;;;2.75;1.08;;;;;;;13.46;100.00;98398.88;7392147;19;20040;-84
2022/03/11 09:16:46;;;;;;;1.70;1.48;;;;;;;13.58;100.00;98389.78;7393207;19;20357;-85
2022/03/11 09:19:13;;;;;;;7.88;1.77;;;;;;;13.78;100.00;98379.31;7392718;19;20468;-84
2022/03/11 09:21:39;;;;;;;3.50;2.22;;;;;;;14.00;100.00;98382.50;7397620;19;20018;-85
2022/03/11 09:24:05;;;;;;;3.78;1.40;;;;;;;14.09;100.00;98378.56;7393220;19;20509;-85
2022/03/11 09:26:31;;;;;;;3.40;2.28;;;;;;;14.26;100.00;98379.78;7391807;19;20018;-85
2022/03/11 09:28:59;;;;;;;5.50;1.80;;;;;;;14.33;100.00;98367.22;7393173;19;20018;-83
2022/03/11 09:31:25;;;;;;;5.72;2.05;;;;;;;14.39;100.00;98376.25;7396882;19;20038;-85
2022/03/11 09:33:50;;;;;;;4.93;1.77;;;;;;;14.42;100.00;98363.97;7393129;19;20493;-85
2022/03/11 09:36:16;;;;;;;1.65;0.75;;;;;;;14.51;100.00;98363.53;7392822;19;20487;-83
2022/03/11 09:38:42;;;;;;;1.98;1.77;;;;;;;14.58;100.00;98365.69;7391529;19;20020;-84
2022/03/11 09:41:08;;;;;;;2.70;1.30;;;;;;;14.60;100.00;98363.09;7396444;19;20258;-85
2022/03/11 09:43:37;;;;;;;9.27;1.95;;;;;;;14.50;100.00;98353.63;7393386;19;20026;-83
2022/03/11 09:46:03;;;;;;;4.35;1.42;;;;;;;14.54;100.00;98365.28;7392609;19;20010;-83
2022/03/11 09:48:31;;;;;;;14.95;1.77;;;;;;;14.60;100.00;98346.28;7392021;19;20017;-82
2022/03/11 09:51:00;;;;;;;1.80;1.05;;;;;;;14.72;100.00;98353.19;7394573;19;20023;-80
2022/03/11 09:53:29;;;;;;;2.13;1.02;;;;;;;14.80;100.00;98340.03;7391623;19;20050;-81
2022/03/11 09:55:55;;;;;;;2.70;1.45;;;;;;;14.86;100.00;98346.28;7390390;19;20026;-82
2022/03/11 09:58:20;;;;;;;3.70;1.25;;;;;;;14.91;100.00;98347.44;7393067;19;20021;-81
2022/03/11 10:00:47;;;;;;;5.55;1.80;;;;;;;14.88;100.00;98342.91;7394312;19;20015;-82
2022/03/11 10:03:13;;;;;;;1.65;1.05;;;;;;;14.88;100.00;98346.47;7391096;19;20034;-82
2022/03/11 10:05:49;;;;;;;4.90;1.45;;;;;;;14.83;100.00;98327.75;7390743;19;20018;-82
2022/03/11 10:08:20;;;;;;;4.15;0.73;;;;;;;14.96;100.00;98327.72;7391606;19;20033;-82
2022/03/11 10:10:46;;;;;;;1.73;1.30;;;;;;;14.98;100.00;98324.38;7390996;19;20021;-82
2022/03/11 10:13:12;;;;;;;4.30;1.30;;;;;;;14.94;100.00;98335.91;7389853;19;20051;-80
2022/03/11 10:15:41;;;;;;;2.55;0.95;;;;;;;14.94;100.00;98330.28;7390130;19;20423;-81
2022/03/11 10:18:09;;;;;;;2.72;1.60;;;;;;;14.84;100.00;98342.50;7392388;19;20036;-81
2022/03/11 10:20:35;;;;;;;3.25;0.93;;;;;;;14.83;100.00;98324.94;7395613;19;20019;-80
2022/03/11 10:23:07;;;;;;;5.95;2.13;;;;;;;14.78;100.00;98323.00;7395252;19;20026;-79
2022/03/11 10:25:33;;;;;;;2.67;0.80;;;;;;;14.69;100.00;98320.66;7390500;19;20465;-80
2022/03/11 10:28:08;;;;;;;5.82;2.58;;;;;;;14.65;100.00;98314.63;7391056;19;20027;-80
2022/03/11 10:30:36;;;;;;;4.90;1.80;;;;;;;14.62;100.00;98310.09;7393145;19;20174;-82
2022/03/11 10:33:10;;;;;;;4.82;1.42;;;;;;;14.69;100.00;98303.06;7389500;19;20385;-83
2022/03/11 10:35:36;;;;;;;5.28;1.33;;;;;;;14.64;100.00;98306.75;7390115;19;20025;-83
2022/03/11 10:38:15;;;;;;;9.73;1.92;;;;;;;14.57;100.00;98302.56;7391382;19;20552;-82
2022/03/11 10:40:48;;;;;;;5.03;1.85;;;;;;;14.54;100.00;98292.44;7392638;19;20042;-81
2022/03/11 10:43:23;;;;;;;1.30;1.20;;;;;;;14.47;100.00;98292.34;7394584;19;20458;-89
2022/03/11 10:45:56;;;;;;;3.50;2.30;;;;;;;14.52;100.00;98297.81;7390901;19;20014;-86
2022/03/11 10:48:54;;;;;;;4.63;1.67;;;;;;;14.54;100.00;98292.44;7392963;19;20066;-87
2022/03/11 10:51:22;;;;;;;2.00;1.05;;;;;;;14.54;100.00;98281.22;7397243;19;20512;-90
2022/03/11 10:53:49;;;;;;;3.60;2.40;;;;;;;14.60;100.00;98289.50;7393464;19;20023;-91
2022/03/11 10:56:25;;;;;;;4.22;2.17;;;;;;;14.65;100.00;98285.84;7394096;19;20022;-91
2022/03/11 10:58:50;;;;;;;9.93;1.98;;;;;;;14.71;100.00;98270.41;7393607;19;20021;-81
2022/03/11 11:01:33;;;;;;;1.77;1.23;;;;;;;14.57;100.00;98282.97;7393575;19;20011;-79
2022/03/11 11:04:01;;;;;;;5.10;1.35;;;;;;;14.59;100.00;98283.16;7389281;19;20014;-81
2022/03/11 11:06:27;;;;;;;4.45;1.92;;;;;;;14.66;100.00;98279.69;7386090;19;20124;-80
2022/03/11 11:08:52;;;;;;;4.30;2.08;;;;;;;14.60;100.00;98267.84;7391604;19;20018;-81
2022/03/11 11:11:19;;;;;;;3.60;1.83;;;;;;;14.65;100.00;98267.00;7391004;19;20017;-83
2022/03/11 11:13:45;;;;;;;2.47;1.63;;;;;;;14.66;100.00;98259.34;7391573;19;20015;-86
2022/03/11 11:16:11;;;;;;;8.60;2.45;;;;;;;14.68;100.00;98257.50;7392640;19;20412;-89
2022/03/11 11:18:39;;;;;;;4.95;1.58;;;;;;;14.56;100.00;98259.03;7396145;19;20091;-90
2022/03/11 11:21:09;;;;;;;5.82;2.00;;;;;;;14.68;100.00;98251.91;7399184;19;20018;-96
2022/03/11 11:23:37;;;;;;;2.00;1.58;;;;;;;14.57;100.00;98248.56;7402250;19;20043;-91
2022/03/11 11:26:04;;;;;;;12.23;2.25;;;;;;;14.49;100.00;98250.53;7399723;19;20010;-87